Iskmati Spirit — C6WJ4 — position and weather

sailwx.info

Track history (hours):
 
Tides and Currents Weather Stations Pressure Air Temp Water Temp Dewpoint Dewpoint Depression Visibility Wind Speed Wind Dir Waves Ship Positions

Iskmati Spirit

Last reported at 2018-Aug-14 05:45 UTC. Time now 2018-Aug-14 06:59 UTC.
Position N 36°23' W 000°07'.

Length 274 m; draft 14.2 m.

Type: Tanker. MMSI: 308172000.

Date/timePositionNaut miles runAvg speedWind from/ knotsBaromVisibWave heightAir tempDewpointWater temp
2018-Aug-14 05:45N 36°23' W 000°07'0 0.8
2018-Aug-14 05:16N 36°23' W 000°08'0 0.5
2018-Aug-14 04:43N 36°23' W 000°08'0 0.3
2018-Aug-14 04:30N 36°23' W 000°08'0 0.4
2018-Aug-14 03:34N 36°22' W 000°08'0 0.3
2018-Aug-14 03:30N 36°22' W 000°08'0 0.2
2018-Aug-14 02:56N 36°22' W 000°08'0 0.3
2018-Aug-14 02:30N 36°22' W 000°08'0 0.5
2018-Aug-14 02:00N 36°22' W 000°09'0 0.6
2018-Aug-14 01:24N 36°22' W 000°09'0 0.5
2018-Aug-14 01:00N 36°22' W 000°09'0 0.7
2018-Aug-14 00:29N 36°23' W 000°10'0 0.6
2018-Aug-13 23:59N 36°23' W 000°10'0 0.5
2018-Aug-13 23:29N 36°23' W 000°10'0 0.6
2018-Aug-13 22:59N 36°22' W 000°11'0 0.7
2018-Aug-13 22:30N 36°23' W 000°11'3 0.7
2018-Aug-13 17:52N 36°22' W 000°15'0 0.7
2018-Aug-13 17:30N 36°22' W 000°16'6 0.4
2018-Aug-13 00:42N 36°24' W 000°23'0 0.6
2018-Aug-13 00:27N 36°24' W 000°23'0 0.6
2018-Aug-13 00:00N 36°24' W 000°24'0 0.7
2018-Aug-12 23:30N 36°24' W 000°24'4 0.5
2018-Aug-12 16:24N 36°21' W 000°21'511.1
2018-Aug-12 15:57N 36°18' W 000°16'510.2
2018-Aug-12 15:30N 36°15' W 000°12'3 0.4
2018-Aug-12 06:06N 36°16' W 000°16'0 0.8
2018-Aug-12 05:56N 36°16' W 000°16'6 0.2
2018-Aug-11 00:30N 36°19' W 000°22'0 0.3
2018-Aug-10 23:39N 36°19' W 000°22'0 0.5
2018-Aug-10 23:30N 36°19' W 000°22'2 0.4
2018-Aug-10 19:07N 36°21' W 000°21'0 0.4
2018-Aug-10 19:00N 36°21' W 000°21'10 1.0
2018-Aug-10 09:26N 36°15' W 000°10'1 0.4
2018-Aug-10 06:58N 36°15' W 000°11'1 0.4
2018-Aug-10 04:42N 36°15' W 000°12'2 0.4
2018-Aug-09 22:33N 36°15' W 000°15'0 0.6
2018-Aug-09 22:28N 36°15' W 000°15'0 0.7
2018-Aug-09 22:00N 36°15' W 000°16'2 0.8
2018-Aug-09 19:36N 36°16' W 000°18'7 0.4
2018-Aug-09 03:59N 36°18' W 000°26'0 0.6
2018-Aug-09 03:30N 36°18' W 000°26'0 0.7
2018-Aug-09 03:00N 36°18' W 000°26'1 0.6
2018-Aug-09 01:56N 36°18' W 000°27'0 0.3
2018-Aug-09 01:27N 36°19' W 000°27'0 0.6
2018-Aug-09 01:00N 36°19' W 000°27'0 0.7
2018-Aug-09 00:28N 36°19' W 000°28'0 0.7
2018-Aug-08 23:58N 36°19' W 000°28'0 0.4
2018-Aug-08 23:30N 36°19' W 000°28'1 0.3
2018-Aug-08 21:33N 36°19' W 000°29'0 0.5
2018-Aug-08 21:30N 36°19' W 000°29'0 0.4
2018-Aug-08 20:29N 36°19' W 000°30'0 0.3
2018-Aug-08 19:54N 36°19' W 000°30'0 0.4
2018-Aug-08 19:05N 36°18' W 000°30'0 0.5
2018-Aug-08 18:46N 36°18' W 000°29'0 0.5
2018-Aug-08 18:27N 36°18' W 000°29'0 0.5
2018-Aug-08 17:56N 36°18' W 000°29'1 0.5
2018-Aug-08 16:28N 36°18' W 000°28'0 0.8
2018-Aug-08 16:00N 36°18' W 000°28'0 0.6
2018-Aug-08 15:30N 36°18' W 000°28'0 0.6
2018-Aug-08 14:56N 36°18' W 000°27'0 0.7
2018-Aug-08 14:29N 36°18' W 000°27'0 0.8
2018-Aug-08 13:59N 36°18' W 000°26'0 0.9
2018-Aug-08 13:30N 36°18' W 000°26'1 1.0
2018-Aug-08 12:53N 36°19' W 000°26'0 0.8
2018-Aug-08 12:28N 36°19' W 000°25'1 0.8
2018-Aug-08 10:52N 36°20' W 000°25'1 0.5
2018-Aug-08 09:30N 36°21' W 000°25'0 0.5
2018-Aug-08 09:00N 36°21' W 000°25'0 0.6
2018-Aug-08 08:29N 36°22' W 000°26'0 0.7
2018-Aug-08 07:59N 36°22' W 000°26'1 0.6
2018-Aug-08 07:00N 36°22' W 000°27'0 0.5
2018-Aug-08 06:26N 36°22' W 000°27'0 0.3
2018-Aug-08 05:26N 36°22' W 000°27'0 0.3
2018-Aug-08 05:00N 36°22' W 000°27'0 0.3
2018-Aug-08 04:24N 36°22' W 000°27'0 0.3
2018-Aug-08 03:51N 36°22' W 000°28'1 0.5
2018-Aug-08 02:18N 36°21' W 000°27'0 0.7
2018-Aug-08 01:49N 36°21' W 000°27'0 0.7
2018-Aug-08 01:21N 36°21' W 000°27'0 0.7
2018-Aug-08 01:00N 36°21' W 000°26'0 0.8
2018-Aug-08 00:30N 36°21' W 000°26'1 0.8
2018-Aug-07 23:31N 36°21' W 000°25'0 0.9
2018-Aug-07 23:30N 36°21' W 000°25'1 0.9
2018-Aug-07 22:56N 36°21' W 000°24'0 0.9
2018-Aug-07 22:30N 36°21' W 000°24'1 0.9
2018-Aug-07 21:52N 36°22' W 000°23'0 0.8
2018-Aug-07 21:29N 36°22' W 000°23'0 0.8
2018-Aug-07 21:00N 36°22' W 000°23'0 0.8
2018-Aug-07 20:30N 36°22' W 000°22'2 0.7
2018-Aug-07 17:50N 36°24' W 000°21'0 0.7
2018-Aug-07 17:25N 36°24' W 000°21'0 0.7
2018-Aug-07 16:53N 36°25' W 000°22'0 0.6
2018-Aug-07 16:26N 36°25' W 000°22'0 0.5
2018-Aug-07 15:58N 36°25' W 000°22'0 0.3
2018-Aug-07 15:29N 36°25' W 000°22'0 0.4
2018-Aug-07 14:24N 36°25' W 000°22'0 0.4
2018-Aug-07 14:00N 36°26' W 000°22'0 0.5
2018-Aug-07 13:30N 36°26' W 000°23'13 2.4
2018-Aug-07 08:03N 36°13' W 000°29'2 9.5
2018-Aug-07 07:49N 36°11' W 000°30'2 3.3
2018-Aug-07 07:18N 36°10' W 000°32'0 0.1
2018-Aug-07 06:59N 36°10' W 000°32'0 0.1
2018-Aug-07 05:11N 36°11' W 000°32'1 0.4
2018-Aug-07 01:37N 36°12' W 000°31'0 0.7
2018-Aug-07 01:22N 36°12' W 000°31'0 0.7
2018-Aug-07 00:58N 36°12' W 000°31'2 0.5
2018-Aug-06 20:40N 36°15' W 000°31'0 0.4
2018-Aug-06 20:30N 36°15' W 000°31'0 0.4
2018-Aug-06 19:19N 36°15' W 000°31'0 0.2
2018-Aug-06 17:34N 36°15' W 000°31'0 0.2
2018-Aug-06 17:14N 36°15' W 000°31'0 0.2
2018-Aug-06 16:55N 36°16' W 000°31'0 0.2
2018-Aug-06 16:19N 36°16' W 000°31'0 0.2
2018-Aug-06 15:37N 36°16' W 000°31'0 0.2
2018-Aug-06 15:30N 36°16' W 000°31'0 0.3
2018-Aug-06 14:07N 36°16' W 000°30'1 0.6
2018-Aug-06 12:57N 36°16' W 000°29'1 0.7
2018-Aug-06 11:23N 36°16' W 000°28'2 0.8
2018-Aug-06 09:29N 36°16' W 000°26'0 0.8
2018-Aug-06 09:00N 36°17' W 000°25'6 0.4
2018-Aug-05 19:56N 36°20' W 000°20'0 0.7
2018-Aug-05 19:30N 36°20' W 000°20'0 0.7
2018-Aug-05 19:00N 36°20' W 000°19'0 0.7
2018-Aug-05 18:30N 36°20' W 000°19'0 0.7
2018-Aug-05 18:00N 36°20' W 000°18'0 0.6
2018-Aug-05 17:30N 36°21' W 000°18'0 0.5
2018-Aug-05 16:56N 36°21' W 000°18'0 0.5
2018-Aug-05 16:28N 36°21' W 000°18'0 0.6
2018-Aug-05 15:48N 36°21' W 000°17'0 0.6
2018-Aug-05 15:29N 36°21' W 000°17'0 0.6
2018-Aug-05 15:00N 36°21' W 000°17'0 0.5
2018-Aug-05 14:00N 36°22' W 000°16'0 0.3
2018-Aug-05 13:30N 36°22' W 000°16'0 0.3
2018-Aug-05 12:59N 36°22' W 000°16'1 0.4
2018-Aug-05 10:39N 36°23' W 000°15'18 5.9
2018-Aug-05 07:37N 36°15' W 000°36'0 1.6
2018-Aug-05 07:22N 36°15' W 000°35'0 0.4
2018-Aug-05 07:00N 36°16' W 000°35'0 0.4
2018-Aug-05 06:22N 36°16' W 000°35'4 0.4
2018-Aug-04 21:34N 36°18' W 000°31'0 0.5
2018-Aug-04 21:29N 36°18' W 000°31'0 0.5
2018-Aug-04 20:57N 36°18' W 000°31'1 0.5
2018-Aug-04 19:40N 36°19' W 000°30'0 0.5
2018-Aug-04 19:29N 36°19' W 000°30'0 0.5
2018-Aug-04 18:57N 36°19' W 000°30'0 0.5
2018-Aug-04 18:28N 36°19' W 000°30'1 0.5
2018-Aug-04 16:57N 36°19' W 000°29'0 0.5
2018-Aug-04 16:27N 36°19' W 000°28'0 0.4
2018-Aug-04 16:00N 36°19' W 000°28'0 0.4
2018-Aug-04 15:29N 36°19' W 000°28'0 0.4
2018-Aug-04 14:58N 36°20' W 000°28'0 0.5
2018-Aug-04 14:30N 36°20' W 000°27'0 0.5
2018-Aug-04 13:52N 36°20' W 000°27'0 0.5
2018-Aug-04 13:30N 36°20' W 000°27'1 0.5
2018-Aug-04 11:44N 36°20' W 000°26'0 0.5
2018-Aug-04 10:58N 36°20' W 000°26'  
Track history (hours):
 
Tides and Currents Weather Stations Pressure Air Temp Water Temp Dewpoint Dewpoint Depression Visibility Wind Speed Wind Dir Waves Ship Positions

Iskmati Spirit

Last reported at 2018-Aug-14 05:45 UTC. Time now 2018-Aug-14 06:59 UTC.
Position N 36°23' W 000°07'.

Length 274 m; draft 14.2 m.

Type: Tanker. MMSI: 308172000.

Date/timePositionNaut miles runAvg speedWind from/ knotsBaromVisibWave heightAir tempDewpointWater temp
2018-Aug-14 05:45N 36°23' W 000°07'0 0.8
2018-Aug-14 05:16N 36°23' W 000°08'0 0.5
2018-Aug-14 04:43N 36°23' W 000°08'0 0.3
2018-Aug-14 04:30N 36°23' W 000°08'0 0.4
2018-Aug-14 03:34N 36°22' W 000°08'0 0.3
2018-Aug-14 03:30N 36°22' W 000°08'0 0.2
2018-Aug-14 02:56N 36°22' W 000°08'0 0.3
2018-Aug-14 02:30N 36°22' W 000°08'0 0.5
2018-Aug-14 02:00N 36°22' W 000°09'0 0.6
2018-Aug-14 01:24N 36°22' W 000°09'0 0.5
2018-Aug-14 01:00N 36°22' W 000°09'0 0.7
2018-Aug-14 00:29N 36°23' W 000°10'0 0.6
2018-Aug-13 23:59N 36°23' W 000°10'0 0.5
2018-Aug-13 23:29N 36°23' W 000°10'0 0.6
2018-Aug-13 22:59N 36°22' W 000°11'0 0.7
2018-Aug-13 22:30N 36°23' W 000°11'3 0.7
2018-Aug-13 17:52N 36°22' W 000°15'0 0.7
2018-Aug-13 17:30N 36°22' W 000°16'6 0.4
2018-Aug-13 00:42N 36°24' W 000°23'0 0.6
2018-Aug-13 00:27N 36°24' W 000°23'0 0.6
2018-Aug-13 00:00N 36°24' W 000°24'0 0.7
2018-Aug-12 23:30N 36°24' W 000°24'4 0.5
2018-Aug-12 16:24N 36°21' W 000°21'511.1
2018-Aug-12 15:57N 36°18' W 000°16'510.2
2018-Aug-12 15:30N 36°15' W 000°12'3 0.4
2018-Aug-12 06:06N 36°16' W 000°16'0 0.8
2018-Aug-12 05:56N 36°16' W 000°16'6 0.2
2018-Aug-11 00:30N 36°19' W 000°22'0 0.3
2018-Aug-10 23:39N 36°19' W 000°22'0 0.5
2018-Aug-10 23:30N 36°19' W 000°22'2 0.4
2018-Aug-10 19:07N 36°21' W 000°21'0 0.4
2018-Aug-10 19:00N 36°21' W 000°21'10 1.0
2018-Aug-10 09:26N 36°15' W 000°10'1 0.4
2018-Aug-10 06:58N 36°15' W 000°11'1 0.4
2018-Aug-10 04:42N 36°15' W 000°12'2 0.4
2018-Aug-09 22:33N 36°15' W 000°15'0 0.6
2018-Aug-09 22:28N 36°15' W 000°15'0 0.7
2018-Aug-09 22:00N 36°15' W 000°16'2 0.8
2018-Aug-09 19:36N 36°16' W 000°18'7 0.4
2018-Aug-09 03:59N 36°18' W 000°26'0 0.6
2018-Aug-09 03:30N 36°18' W 000°26'0 0.7
2018-Aug-09 03:00N 36°18' W 000°26'1 0.6
2018-Aug-09 01:56N 36°18' W 000°27'0 0.3
2018-Aug-09 01:27N 36°19' W 000°27'0 0.6
2018-Aug-09 01:00N 36°19' W 000°27'0 0.7
2018-Aug-09 00:28N 36°19' W 000°28'0 0.7
2018-Aug-08 23:58N 36°19' W 000°28'0 0.4
2018-Aug-08 23:30N 36°19' W 000°28'1 0.3
2018-Aug-08 21:33N 36°19' W 000°29'0 0.5
2018-Aug-08 21:30N 36°19' W 000°29'0 0.4
2018-Aug-08 20:29N 36°19' W 000°30'0 0.3
2018-Aug-08 19:54N 36°19' W 000°30'0 0.4
2018-Aug-08 19:05N 36°18' W 000°30'0 0.5
2018-Aug-08 18:46N 36°18' W 000°29'0 0.5
2018-Aug-08 18:27N 36°18' W 000°29'0 0.5
2018-Aug-08 17:56N 36°18' W 000°29'1 0.5
2018-Aug-08 16:28N 36°18' W 000°28'0 0.8
2018-Aug-08 16:00N 36°18' W 000°28'0 0.6
2018-Aug-08 15:30N 36°18' W 000°28'0 0.6
2018-Aug-08 14:56N 36°18' W 000°27'0 0.7
2018-Aug-08 14:29N 36°18' W 000°27'0 0.8
2018-Aug-08 13:59N 36°18' W 000°26'0 0.9
2018-Aug-08 13:30N 36°18' W 000°26'1 1.0
2018-Aug-08 12:53N 36°19' W 000°26'0 0.8
2018-Aug-08 12:28N 36°19' W 000°25'1 0.8
2018-Aug-08 10:52N 36°20' W 000°25'1 0.5
2018-Aug-08 09:30N 36°21' W 000°25'0 0.5
2018-Aug-08 09:00N 36°21' W 000°25'0 0.6
2018-Aug-08 08:29N 36°22' W 000°26'0 0.7
2018-Aug-08 07:59N 36°22' W 000°26'1 0.6
2018-Aug-08 07:00N 36°22' W 000°27'0 0.5
2018-Aug-08 06:26N 36°22' W 000°27'0 0.3
2018-Aug-08 05:26N 36°22' W 000°27'0 0.3
2018-Aug-08 05:00N 36°22' W 000°27'0 0.3
2018-Aug-08 04:24N 36°22' W 000°27'0 0.3
2018-Aug-08 03:51N 36°22' W 000°28'1 0.5
2018-Aug-08 02:18N 36°21' W 000°27'0 0.7
2018-Aug-08 01:49N 36°21' W 000°27'0 0.7
2018-Aug-08 01:21N 36°21' W 000°27'0 0.7
2018-Aug-08 01:00N 36°21' W 000°26'0 0.8
2018-Aug-08 00:30N 36°21' W 000°26'1 0.8
2018-Aug-07 23:31N 36°21' W 000°25'0 0.9
2018-Aug-07 23:30N 36°21' W 000°25'1 0.9
2018-Aug-07 22:56N 36°21' W 000°24'0 0.9
2018-Aug-07 22:30N 36°21' W 000°24'1 0.9
2018-Aug-07 21:52N 36°22' W 000°23'0 0.8
2018-Aug-07 21:29N 36°22' W 000°23'0 0.8
2018-Aug-07 21:00N 36°22' W 000°23'0 0.8
2018-Aug-07 20:30N 36°22' W 000°22'2 0.7
2018-Aug-07 17:50N 36°24' W 000°21'0 0.7
2018-Aug-07 17:25N 36°24' W 000°21'0 0.7
2018-Aug-07 16:53N 36°25' W 000°22'0 0.6
2018-Aug-07 16:26N 36°25' W 000°22'0 0.5
2018-Aug-07 15:58N 36°25' W 000°22'0 0.3
2018-Aug-07 15:29N 36°25' W 000°22'0 0.4
2018-Aug-07 14:24N 36°25' W 000°22'0 0.4
2018-Aug-07 14:00N 36°26' W 000°22'0 0.5
2018-Aug-07 13:30N 36°26' W 000°23'13 2.4
2018-Aug-07 08:03N 36°13' W 000°29'2 9.5
2018-Aug-07 07:49N 36°11' W 000°30'2 3.3
2018-Aug-07 07:18N 36°10' W 000°32'0 0.1
2018-Aug-07 06:59N 36°10' W 000°32'0 0.1
2018-Aug-07 05:11N 36°11' W 000°32'1 0.4
2018-Aug-07 01:37N 36°12' W 000°31'0 0.7
2018-Aug-07 01:22N 36°12' W 000°31'0 0.7
2018-Aug-07 00:58N 36°12' W 000°31'2 0.5
2018-Aug-06 20:40N 36°15' W 000°31'0 0.4
2018-Aug-06 20:30N 36°15' W 000°31'0 0.4
2018-Aug-06 19:19N 36°15' W 000°31'0 0.2
2018-Aug-06 17:34N 36°15' W 000°31'0 0.2
2018-Aug-06 17:14N 36°15' W 000°31'0 0.2
2018-Aug-06 16:55N 36°16' W 000°31'0 0.2
2018-Aug-06 16:19N 36°16' W 000°31'0 0.2
2018-Aug-06 15:37N 36°16' W 000°31'0 0.2
2018-Aug-06 15:30N 36°16' W 000°31'0 0.3
2018-Aug-06 14:07N 36°16' W 000°30'1 0.6
2018-Aug-06 12:57N 36°16' W 000°29'1 0.7
2018-Aug-06 11:23N 36°16' W 000°28'2 0.8
2018-Aug-06 09:29N 36°16' W 000°26'0 0.8
2018-Aug-06 09:00N 36°17' W 000°25'6 0.4
2018-Aug-05 19:56N 36°20' W 000°20'0 0.7
2018-Aug-05 19:30N 36°20' W 000°20'0 0.7
2018-Aug-05 19:00N 36°20' W 000°19'0 0.7
2018-Aug-05 18:30N 36°20' W 000°19'0 0.7
2018-Aug-05 18:00N 36°20' W 000°18'0 0.6
2018-Aug-05 17:30N 36°21' W 000°18'0 0.5
2018-Aug-05 16:56N 36°21' W 000°18'0 0.5
2018-Aug-05 16:28N 36°21' W 000°18'0 0.6
2018-Aug-05 15:48N 36°21' W 000°17'0 0.6
2018-Aug-05 15:29N 36°21' W 000°17'0 0.6
2018-Aug-05 15:00N 36°21' W 000°17'0 0.5
2018-Aug-05 14:00N 36°22' W 000°16'0 0.3
2018-Aug-05 13:30N 36°22' W 000°16'0 0.3
2018-Aug-05 12:59N 36°22' W 000°16'1 0.4
2018-Aug-05 10:39N 36°23' W 000°15'18 5.9
2018-Aug-05 07:37N 36°15' W 000°36'0 1.6
2018-Aug-05 07:22N 36°15' W 000°35'0 0.4
2018-Aug-05 07:00N 36°16' W 000°35'0 0.4
2018-Aug-05 06:22N 36°16' W 000°35'4 0.4
2018-Aug-04 21:34N 36°18' W 000°31'0 0.5
2018-Aug-04 21:29N 36°18' W 000°31'0 0.5
2018-Aug-04 20:57N 36°18' W 000°31'1 0.5
2018-Aug-04 19:40N 36°19' W 000°30'0 0.5
2018-Aug-04 19:29N 36°19' W 000°30'0 0.5
2018-Aug-04 18:57N 36°19' W 000°30'0 0.5
2018-Aug-04 18:28N 36°19' W 000°30'1 0.5
2018-Aug-04 16:57N 36°19' W 000°29'0 0.5
2018-Aug-04 16:27N 36°19' W 000°28'0 0.4
2018-Aug-04 16:00N 36°19' W 000°28'0 0.4
2018-Aug-04 15:29N 36°19' W 000°28'0 0.4
2018-Aug-04 14:58N 36°20' W 000°28'0 0.5
2018-Aug-04 14:30N 36°20' W 000°27'0 0.5
2018-Aug-04 13:52N 36°20' W 000°27'0 0.5
2018-Aug-04 13:30N 36°20' W 000°27'1 0.5
2018-Aug-04 11:44N 36°20' W 000°26'0 0.5
2018-Aug-04 10:58N 36°20' W 000°26'  

Dump ship's entire track history